Time;durP1;ratioP1;P1;durP2;ratioP2;P2;SDS_P1;SDS_P2;PMS_P1;PMS_P2;Temp;Humidity;BMP_temperature;BMP_pressure;BME280_temperature;BME280_humidity;BME280_pressure;Samples;Min_cycle;Max_cycle;Signal;HPM_P1;HPM_P2
2022/08/29 00:00:34;;;;;;;14.02;12.63;;;27.90;1.00;;;;;;5034909;28;20029;-57
2022/08/29 00:03:05;;;;;;;15.98;14.13;;;27.90;1.00;;;;;;5033270;28;20021;-58
2022/08/29 00:05:33;;;;;;;14.60;13.23;;;27.80;1.00;;;;;;5035427;28;20037;-57
2022/08/29 00:08:00;;;;;;;13.60;12.27;;;27.80;1.00;;;;;;5026986;28;20025;-57
2022/08/29 00:10:27;;;;;;;15.57;13.73;;;27.80;1.00;;;;;;5032037;28;20041;-57
2022/08/29 00:12:53;;;;;;;14.27;12.88;;;27.80;1.00;;;;;;5033137;28;20097;-56
2022/08/29 00:15:19;;;;;;;13.60;12.23;;;27.80;1.00;;;;;;5036033;28;20116;-56
2022/08/29 00:17:45;;;;;;;12.15;10.90;;;27.80;1.00;;;;;;5031638;28;20049;-58
2022/08/29 00:20:15;;;;;;;12.23;10.93;;;27.80;1.00;;;;;;5036837;28;20411;-58
2022/08/29 00:22:41;;;;;;;11.45;10.38;;;27.80;1.00;;;;;;5031502;28;20013;-58
2022/08/29 00:25:09;;;;;;;11.45;10.27;;;27.70;1.00;;;;;;5037394;28;20052;-57
2022/08/29 00:27:35;;;;;;;10.77;9.60;;;27.60;1.00;;;;;;5030432;28;20079;-53
2022/08/29 00:30:05;;;;;;;10.38;9.25;;;27.60;1.00;;;;;;5033515;28;20022;-57
2022/08/29 00:32:35;;;;;;;9.95;8.70;;;27.60;1.00;;;;;;5032503;28;20503;-57
2022/08/29 00:35:13;;;;;;;8.93;8.15;;;27.60;1.00;;;;;;5034961;28;20123;-55
2022/08/29 00:37:40;;;;;;;9.02;8.23;;;27.60;1.00;;;;;;5032579;28;20061;-57
2022/08/29 00:40:14;;;;;;;9.18;8.27;;;27.50;1.00;;;;;;5031382;28;20022;-55
2022/08/29 00:42:39;;;;;;;8.40;7.70;;;27.60;1.00;;;;;;5032653;28;20060;-57
2022/08/29 00:48:45;;;;;;;8.07;7.28;;;27.50;1.00;;;;;;5024665;28;20402;-56
2022/08/29 00:51:15;;;;;;;8.63;7.88;;;27.30;1.00;;;;;;5041051;28;20025;-58
2022/08/29 00:53:44;;;;;;;9.60;8.70;;;27.30;1.00;;;;;;5030671;28;20108;-57
2022/08/29 00:56:13;;;;;;;10.27;9.15;;;27.30;1.00;;;;;;5039010;28;20048;-57
2022/08/29 00:58:50;;;;;;;9.80;8.85;;;27.40;1.00;;;;;;5034640;28;20140;-55
2022/08/29 01:01:19;;;;;;;8.15;7.32;;;27.30;1.00;;;;;;5032250;28;20033;-57
2022/08/29 01:03:46;;;;;;;9.98;9.15;;;27.40;1.00;;;;;;5031065;28;20498;-56
2022/08/29 01:06:12;;;;;;;8.73;7.93;;;27.30;1.00;;;;;;5032174;28;20084;-56
2022/08/29 01:08:38;;;;;;;9.52;8.73;;;27.40;1.00;;;;;;5031278;28;20093;-57
2022/08/29 01:13:53;;;;;;;10.95;9.93;;;27.30;1.00;;;;;;5033923;28;20044;-57
2022/08/29 01:16:20;;;;;;;9.98;9.07;;;27.20;1.00;;;;;;5038643;28;20112;-56
2022/08/29 01:18:49;;;;;;;12.30;10.07;;;27.10;1.00;;;;;;5031069;28;20490;-58
2022/08/29 01:21:27;;;;;;;11.15;10.05;;;27.10;1.00;;;;;;5017152;28;20109;-57
2022/08/29 01:24:14;;;;;;;10.90;9.63;;;27.10;1.00;;;;;;5030470;28;20068;-57
2022/08/29 01:26:42;;;;;;;12.95;11.15;;;27.10;1.00;;;;;;5020148;28;20029;-58
2022/08/29 01:29:11;;;;;;;13.73;11.25;;;27.10;1.00;;;;;;5032137;28;20032;-57
2022/08/29 01:31:43;;;;;;;11.77;10.60;;;27.00;1.00;;;;;;5031044;28;20052;-55
2022/08/29 01:34:09;;;;;;;13.60;11.57;;;26.90;1.00;;;;;;5030276;28;20163;-57
2022/08/29 01:36:41;;;;;;;12.02;10.82;;;27.00;1.00;;;;;;5029805;28;20025;-57
2022/08/29 01:39:07;;;;;;;11.27;10.15;;;26.90;1.00;;;;;;5033907;28;20039;-57
2022/08/29 01:41:34;;;;;;;12.13;10.35;;;26.80;1.00;;;;;;5032658;28;20407;-57
2022/08/29 01:44:00;;;;;;;11.52;10.43;;;27.00;1.00;;;;;;5030320;28;20025;-57
2022/08/29 01:46:31;;;;;;;14.85;11.27;;;26.90;1.00;;;;;;5035636;28;20087;-56
2022/08/29 01:48:59;;;;;;;11.43;9.10;;;26.90;1.00;;;;;;5030299;28;20963;-58
2022/08/29 01:51:25;;;;;;;11.77;10.68;;;26.80;1.00;;;;;;5030926;28;20080;-58
2022/08/29 01:53:51;;;;;;;10.75;9.65;;;26.90;1.00;;;;;;5029163;28;20450;-56
2022/08/29 01:56:20;;;;;;;10.75;9.73;;;26.90;1.00;;;;;;5030864;28;20026;-58
2022/08/29 01:58:48;;;;;;;11.60;9.90;;;26.90;1.00;;;;;;5016382;28;20033;-56
2022/08/29 02:01:17;;;;;;;10.40;9.40;;;26.90;1.00;;;;;;5029743;28;20526;-58
2022/08/29 02:03:42;;;;;;;10.57;9.68;;;26.90;1.00;;;;;;5035906;28;20041;-57
2022/08/29 02:06:09;;;;;;;9.57;8.57;;;26.80;1.00;;;;;;5032759;28;20048;-55
2022/08/29 02:08:36;;;;;;;9.35;8.45;;;26.90;1.00;;;;;;5035234;28;20025;-58
2022/08/29 02:11:02;;;;;;;9.18;8.32;;;26.80;1.00;;;;;;5033736;28;20037;-58
2022/08/29 02:13:28;;;;;;;9.30;8.00;;;26.80;1.00;;;;;;5035288;28;20096;-58
2022/08/29 02:15:53;;;;;;;9.80;7.80;;;26.80;1.00;;;;;;5030638;28;20034;-56
2022/08/29 02:18:20;;;;;;;8.52;7.60;;;26.70;1.00;;;;;;5035138;28;20018;-57
2022/08/29 02:21:12;;;;;;;8.70;7.88;;;26.70;1.00;;;;;;5034381;28;20026;-57
2022/08/29 02:23:38;;;;;;;8.77;7.90;;;26.70;1.00;;;;;;5021820;28;20041;-59
2022/08/29 02:26:05;;;;;;;8.40;7.50;;;26.70;1.00;;;;;;5034315;28;20042;-57
2022/08/29 02:28:32;;;;;;;7.20;6.30;;;26.70;1.00;;;;;;5034398;28;20021;-57
2022/08/29 02:30:58;;;;;;;9.60;7.88;;;26.70;1.00;;;;;;5033967;28;20025;-57
2022/08/29 02:33:24;;;;;;;8.38;7.25;;;26.70;1.00;;;;;;5034738;28;20041;-56
2022/08/29 02:35:52;;;;;;;7.43;6.82;;;26.70;1.00;;;;;;5033009;28;20037;-56
2022/08/29 02:38:18;;;;;;;7.82;6.93;;;26.70;1.00;;;;;;5032641;28;20041;-58
2022/08/29 02:40:45;;;;;;;9.93;8.93;;;26.70;1.00;;;;;;5032419;28;20040;-58
2022/08/29 02:43:11;;;;;;;10.75;8.50;;;26.70;1.00;;;;;;5034035;28;20037;-57
2022/08/29 02:45:39;;;;;;;9.90;8.77;;;26.70;1.00;;;;;;5035992;28;20039;-56
2022/08/29 02:48:05;;;;;;;8.88;7.97;;;26.70;1.00;;;;;;5034799;28;20026;-58
2022/08/29 02:50:42;;;;;;;8.18;7.47;;;26.60;1.00;;;;;;5035850;28;20065;-58
2022/08/29 02:53:08;;;;;;;8.82;7.95;;;26.60;1.00;;;;;;5043798;28;20105;-56
2022/08/29 02:55:34;;;;;;;8.23;7.43;;;26.60;1.00;;;;;;5034155;28;20035;-56
2022/08/29 02:58:00;;;;;;;8.05;7.30;;;26.50;1.00;;;;;;5034506;28;20029;-56
2022/08/29 03:00:26;;;;;;;8.00;7.20;;;26.60;1.00;;;;;;5034742;28;20048;-57
2022/08/29 03:02:54;;;;;;;8.68;7.35;;;26.50;1.00;;;;;;5034436;28;20030;-56
2022/08/29 03:05:25;;;;;;;7.97;7.20;;;26.50;1.00;;;;;;5033999;28;20443;-57
2022/08/29 03:07:55;;;;;;;7.20;6.50;;;26.50;1.00;;;;;;5034480;28;20061;-55
2022/08/29 03:18:22;;;;;;;7.97;6.90;;;26.40;1.00;;;;;;5023245;28;20048;-57
2022/08/29 03:20:48;;;;;;;7.65;6.93;;;26.40;1.00;;;;;;5017211;28;20276;-57
2022/08/29 03:23:14;;;;;;;7.13;5.50;;;26.40;1.00;;;;;;5032675;28;20545;-58
2022/08/29 03:25:39;;;;;;;8.07;7.15;;;26.40;1.00;;;;;;5035422;28;20033;-55
2022/08/29 03:28:06;;;;;;;6.70;6.10;;;26.40;1.00;;;;;;5033844;28;20051;-56
2022/08/29 03:30:32;;;;;;;7.45;6.75;;;26.40;1.00;;;;;;5035104;28;20388;-57
2022/08/29 03:33:01;;;;;;;8.02;7.32;;;26.40;1.00;;;;;;5032852;28;20038;-56
2022/08/29 03:35:27;;;;;;;7.38;6.68;;;26.30;1.00;;;;;;5036863;28;20021;-56
2022/08/29 03:37:54;;;;;;;7.68;6.97;;;26.40;1.00;;;;;;5033631;28;20100;-56
2022/08/29 03:40:20;;;;;;;9.02;7.45;;;26.30;1.00;;;;;;5037298;28;20030;-58
2022/08/29 03:42:46;;;;;;;9.40;7.07;;;26.30;1.00;;;;;;5033553;28;20166;-57
2022/08/29 03:45:16;;;;;;;7.68;6.68;;;26.30;1.00;;;;;;5037886;28;20400;-57
2022/08/29 03:47:42;;;;;;;6.82;6.22;;;26.30;1.00;;;;;;5033616;28;20080;-54
2022/08/29 03:50:09;;;;;;;6.47;5.75;;;26.20;1.00;;;;;;5037750;28;20021;-58
2022/08/29 03:52:34;;;;;;;7.20;6.53;;;26.20;1.00;;;;;;5033471;28;20056;-57
2022/08/29 03:55:00;;;;;;;6.35;5.85;;;26.20;1.00;;;;;;5039375;28;20057;-56
2022/08/29 03:57:26;;;;;;;7.70;5.82;;;26.20;1.00;;;;;;5032623;28;20079;-58
2022/08/29 03:59:52;;;;;;;6.72;5.90;;;26.20;1.00;;;;;;5038560;28;20029;-59
2022/08/29 04:02:17;;;;;;;6.10;5.53;;;26.20;1.00;;;;;;5034789;28;20108;-58
2022/08/29 04:07:37;;;;;;;7.13;5.97;;;26.20;1.00;;;;;;5033943;28;20418;-56
2022/08/29 04:10:05;;;;;;;5.95;5.45;;;26.20;1.00;;;;;;5033237;28;20490;-57
2022/08/29 04:12:30;;;;;;;6.20;5.70;;;26.20;1.00;;;;;;5037280;28;20025;-56
2022/08/29 04:14:56;;;;;;;9.20;6.25;;;26.10;1.00;;;;;;5026172;28;20192;-58
2022/08/29 04:17:21;;;;;;;6.82;5.85;;;26.10;1.00;;;;;;5029596;28;20032;-57
2022/08/29 04:19:47;;;;;;;5.93;5.43;;;26.10;1.00;;;;;;5037426;28;20037;-57
2022/08/29 04:22:14;;;;;;;6.30;5.70;;;26.10;1.00;;;;;;5035349;28;20032;-53
2022/08/29 04:24:39;;;;;;;7.40;6.28;;;26.10;1.00;;;;;;5032832;28;20017;-59
2022/08/29 04:27:05;;;;;;;7.40;6.78;;;26.10;1.00;;;;;;5028767;28;20051;-57
2022/08/29 04:29:33;;;;;;;6.35;5.57;;;26.10;1.00;;;;;;5032551;28;20458;-56
2022/08/29 04:31:58;;;;;;;6.75;6.05;;;26.10;1.00;;;;;;5034561;28;20063;-56
2022/08/29 04:34:24;;;;;;;6.43;5.82;;;26.10;1.00;;;;;;5036013;28;20033;-57
2022/08/29 04:36:49;;;;;;;6.35;5.63;;;26.10;1.00;;;;;;5032217;28;20026;-57
2022/08/29 04:39:15;;;;;;;6.97;6.28;;;26.00;1.00;;;;;;5035273;28;20364;-57
2022/08/29 04:41:42;;;;;;;6.70;6.00;;;26.10;1.00;;;;;;5031630;28;20071;-57
2022/08/29 04:44:10;;;;;;;6.60;6.00;;;26.10;1.00;;;;;;5039585;28;20396;-58
2022/08/29 04:46:36;;;;;;;7.30;5.57;;;26.00;1.00;;;;;;5030484;28;20064;-58
2022/08/29 04:49:02;;;;;;;6.68;6.07;;;26.00;1.00;;;;;;5032327;28;20025;-56
2022/08/29 04:51:27;;;;;;;5.78;5.25;;;26.00;1.00;;;;;;5032643;28;20028;-56
2022/08/29 04:53:53;;;;;;;6.15;5.65;;;26.00;1.00;;;;;;5031411;28;20041;-58
2022/08/29 04:56:21;;;;;;;6.80;6.20;;;26.00;1.00;;;;;;5036775;28;20486;-56
2022/08/29 04:58:47;;;;;;;6.95;6.25;;;26.00;1.00;;;;;;5029429;28;20034;-57
2022/08/29 05:01:17;;;;;;;10.77;7.47;;;26.00;1.00;;;;;;5018408;28;20028;-55
2022/08/29 05:03:43;;;;;;;8.73;6.47;;;26.10;1.00;;;;;;5031638;28;20112;-56
2022/08/29 05:06:12;;;;;;;8.70;7.03;;;26.10;1.00;;;;;;5034885;28;20550;-58
2022/08/29 05:08:40;;;;;;;7.50;6.68;;;26.00;1.00;;;;;;5034781;28;20076;-56
2022/08/29 05:11:11;;;;;;;6.93;6.22;;;26.00;1.00;;;;;;5030772;28;20025;-55
2022/08/29 05:13:36;;;;;;;6.88;6.07;;;26.10;1.00;;;;;;5031248;28;20033;-57
2022/08/29 05:20:04;;;;;;;9.60;7.20;;;26.10;1.00;;;;;;5020148;28;20084;-56
2022/08/29 05:22:40;;;;;;;8.38;7.38;;;26.00;1.00;;;;;;5027438;28;20021;-57
2022/08/29 05:25:07;;;;;;;8.50;7.72;;;26.00;1.00;;;;;;5031604;28;20355;-56
2022/08/29 05:27:32;;;;;;;9.95;8.07;;;26.00;1.00;;;;;;5031813;28;20021;-57
2022/08/29 05:29:58;;;;;;;10.57;7.95;;;26.00;1.00;;;;;;5032834;28;20035;-55
2022/08/29 05:32:24;;;;;;;8.13;7.43;;;26.00;1.00;;;;;;5030039;28;20046;-57
2022/08/29 05:34:50;;;;;;;11.88;8.23;;;26.10;1.00;;;;;;5033567;28;20476;-58
2022/08/29 05:37:18;;;;;;;9.25;8.27;;;26.00;1.00;;;;;;5031773;28;20025;-57
2022/08/29 05:39:44;;;;;;;8.77;8.00;;;26.00;1.00;;;;;;5030652;28;20116;-56
2022/08/29 05:42:11;;;;;;;10.20;7.68;;;26.10;1.00;;;;;;5031797;28;20018;-56
2022/08/29 05:44:37;;;;;;;8.18;6.38;;;26.10;1.00;;;;;;5030732;28;20025;-56
2022/08/29 05:47:04;;;;;;;10.60;7.43;;;26.10;1.00;;;;;;5030895;28;20037;-58
2022/08/29 05:49:30;;;;;;;9.43;7.05;;;26.10;1.00;;;;;;5035207;28;20083;-58
2022/08/29 05:51:56;;;;;;;8.98;6.30;;;26.10;1.00;;;;;;5031645;28;20101;-56
2022/08/29 05:54:23;;;;;;;9.57;6.68;;;26.10;1.00;;;;;;5030869;28;20022;-55
2022/08/29 05:56:49;;;;;;;7.72;6.40;;;26.10;1.00;;;;;;5030240;28;20497;-56
2022/08/29 05:59:16;;;;;;;9.30;6.50;;;26.10;1.00;;;;;;5027987;28;20428;-57
2022/08/29 06:01:42;;;;;;;8.07;6.80;;;26.10;1.00;;;;;;5030135;28;20467;-58
2022/08/29 06:04:08;;;;;;;10.90;6.57;;;26.00;1.00;;;;;;5030648;28;20116;-58
2022/08/29 06:06:34;;;;;;;8.35;6.75;;;26.00;1.00;;;;;;5031721;28;20072;-57
2022/08/29 06:09:17;;;;;;;8.52;6.55;;;26.00;1.00;;;;;;5033498;28;20021;-57
2022/08/29 06:11:46;;;;;;;8.90;6.63;;;26.00;1.00;;;;;;5033808;28;20041;-57
2022/08/29 06:14:16;;;;;;;7.95;6.88;;;25.90;1.00;;;;;;5030703;28;20022;-57
2022/08/29 06:16:42;;;;;;;8.10;7.13;;;25.80;1.00;;;;;;5031314;28;20430;-57
2022/08/29 06:19:08;;;;;;;11.10;8.18;;;25.90;1.00;;;;;;5032725;28;20079;-57
2022/08/29 06:21:35;;;;;;;10.13;7.55;;;25.80;1.00;;;;;;5037002;28;20029;-57
2022/08/29 06:24:00;;;;;;;9.32;7.85;;;25.80;1.00;;;;;;5029918;28;20045;-56
2022/08/29 06:26:26;;;;;;;10.50;8.27;;;25.70;1.00;;;;;;5031442;28;20037;-57
2022/08/29 06:28:51;;;;;;;8.77;7.57;;;25.80;1.00;;;;;;5030530;28;20057;-55
2022/08/29 06:31:25;;;;;;;10.93;8.57;;;25.90;1.00;;;;;;5031271;28;20489;-57
2022/08/29 06:33:53;;;;;;;8.18;7.47;;;26.00;1.00;;;;;;5030729;28;20077;-58
2022/08/29 06:36:19;;;;;;;11.57;8.10;;;26.10;1.00;;;;;;5041955;28;20040;-55
2022/08/29 06:38:45;;;;;;;9.05;8.20;;;26.10;1.00;;;;;;5029650;28;20022;-57
2022/08/29 06:41:14;;;;;;;9.35;8.38;;;26.20;1.00;;;;;;5028678;28;20108;-56
2022/08/29 06:43:39;;;;;;;8.70;7.80;;;26.30;1.00;;;;;;5031223;28;20487;-58
2022/08/29 06:46:06;;;;;;;9.90;8.95;;;26.30;1.00;;;;;;5030065;28;20116;-58
2022/08/29 06:48:34;;;;;;;10.88;8.05;;;26.30;1.00;;;;;;5031271;28;20029;-56
2022/08/29 06:51:01;;;;;;;9.68;8.00;;;26.40;1.00;;;;;;5040179;28;20070;-58
2022/08/29 06:53:27;;;;;;;9.65;8.52;;;26.40;1.00;;;;;;5033956;28;20034;-56
2022/08/29 06:55:54;;;;;;;8.80;7.55;;;26.30;1.00;;;;;;5033796;28;20044;-57
2022/08/29 06:58:19;;;;;;;12.82;8.82;;;26.20;1.00;;;;;;5046032;28;20029;-56
2022/08/29 07:00:45;;;;;;;10.65;8.85;;;26.30;1.00;;;;;;5033639;28;20215;-58
2022/08/29 07:03:11;;;;;;;9.50;8.38;;;26.20;1.00;;;;;;5045381;28;20074;-57
2022/08/29 07:05:36;;;;;;;10.32;8.32;;;26.20;1.00;;;;;;5033565;28;20419;-58
2022/08/29 07:08:02;;;;;;;12.23;9.77;;;26.30;1.00;;;;;;5033289;28;20590;-57
2022/08/29 07:10:28;;;;;;;10.68;7.82;;;26.20;1.00;;;;;;5034344;28;20075;-56
2022/08/29 07:12:54;;;;;;;8.65;7.75;;;26.20;1.00;;;;;;5033522;28;20025;-54
2022/08/29 07:15:22;;;;;;;8.52;7.18;;;26.20;1.00;;;;;;5034315;28;20029;-57
2022/08/29 07:17:48;;;;;;;16.65;8.77;;;26.20;1.00;;;;;;5033449;28;20493;-57
2022/08/29 07:20:15;;;;;;;9.73;8.40;;;26.30;1.00;;;;;;5034228;28;20040;-55
2022/08/29 07:22:40;;;;;;;8.88;7.55;;;26.20;1.00;;;;;;5035463;28;20173;-56
2022/08/29 07:25:07;;;;;;;10.38;8.10;;;26.30;1.00;;;;;;5033912;28;20038;-56
2022/08/29 07:27:33;;;;;;;9.82;7.57;;;26.30;1.00;;;;;;5038485;28;20079;-57
2022/08/29 07:30:01;;;;;;;10.07;8.30;;;26.30;1.00;;;;;;5047399;28;20029;-58
2022/08/29 07:32:27;;;;;;;10.65;8.20;;;26.30;1.00;;;;;;5032825;28;20042;-57
2022/08/29 07:34:52;;;;;;;9.25;8.35;;;26.30;1.00;;;;;;5033996;28;20365;-57
2022/08/29 07:37:19;;;;;;;12.07;8.15;;;26.40;1.00;;;;;;5037383;28;20048;-56
2022/08/29 07:39:44;;;;;;;11.50;7.20;;;26.40;1.00;;;;;;5033872;28;20119;-56
2022/08/29 07:42:10;;;;;;;12.52;7.43;;;26.40;1.00;;;;;;5033032;28;20025;-57
2022/08/29 07:44:35;;;;;;;13.98;7.85;;;26.40;1.00;;;;;;5033956;28;20057;-56
2022/08/29 07:47:01;;;;;;;10.90;8.80;;;26.30;1.00;;;;;;5037323;28;20036;-56
2022/08/29 07:49:29;;;;;;;10.18;8.60;;;26.40;1.00;;;;;;5033703;28;20021;-56
2022/08/29 07:51:55;;;;;;;9.27;7.88;;;26.40;1.00;;;;;;5038862;28;20051;-56
2022/08/29 07:54:21;;;;;;;10.00;8.40;;;26.50;1.00;;;;;;5036477;28;20495;-57
2022/08/29 07:56:49;;;;;;;10.10;9.20;;;26.50;1.00;;;;;;5032387;28;20188;-57
2022/08/29 07:59:16;;;;;;;9.88;7.70;;;26.60;1.00;;;;;;5033343;28;20087;-57
2022/08/29 08:01:43;;;;;;;10.93;9.20;;;26.60;1.00;;;;;;5037115;28;20048;-55
2022/08/29 08:04:09;;;;;;;13.20;9.40;;;26.60;1.00;;;;;;5035777;28;20033;-58
2022/08/29 08:06:36;;;;;;;10.77;9.25;;;26.70;1.00;;;;;;5035214;28;20061;-56
2022/08/29 08:09:04;;;;;;;10.82;8.40;;;26.70;1.00;;;;;;5037479;28;20026;-58
2022/08/29 08:11:30;;;;;;;11.23;8.45;;;26.70;1.00;;;;;;5032176;28;20033;-56
2022/08/29 08:13:56;;;;;;;11.43;8.55;;;26.80;1.00;;;;;;5033146;28;20183;-54
2022/08/29 08:16:24;;;;;;;11.43;8.27;;;26.80;1.00;;;;;;5033882;28;20029;-55
2022/08/29 08:18:50;;;;;;;11.57;8.88;;;26.80;1.00;;;;;;5044688;28;20029;-57
2022/08/29 08:21:16;;;;;;;9.70;8.63;;;26.80;1.00;;;;;;5042393;28;20051;-57
2022/08/29 08:23:42;;;;;;;10.27;8.73;;;26.80;1.00;;;;;;5033092;28;20020;-57
2022/08/29 08:26:09;;;;;;;8.98;8.07;;;26.90;1.00;;;;;;5031799;28;20048;-58
2022/08/29 08:28:35;;;;;;;11.05;6.97;;;26.90;1.00;;;;;;5042145;28;20049;-57
2022/08/29 08:31:04;;;;;;;8.73;7.82;;;27.00;1.00;;;;;;5032745;28;20040;-57
2022/08/29 08:33:29;;;;;;;10.07;8.10;;;27.00;1.00;;;;;;5033344;28;20047;-57
2022/08/29 08:35:56;;;;;;;10.63;8.68;;;27.00;1.00;;;;;;5040732;28;20101;-57
2022/08/29 08:38:22;;;;;;;10.70;9.60;;;27.00;1.00;;;;;;5033116;28;20033;-58
2022/08/29 08:41:05;;;;;;;7.60;6.90;;;27.00;1.00;;;;;;5032481;28;20371;-57
2022/08/29 08:43:52;;;;;;;12.88;9.13;;;27.10;1.00;;;;;;5035016;28;20112;-58
2022/08/29 08:46:33;;;;;;;10.88;9.15;;;27.10;1.00;;;;;;5030830;28;20045;-59
2022/08/29 08:49:02;;;;;;;8.15;7.15;;;27.20;1.00;;;;;;5032632;28;20467;-57
2022/08/29 08:51:32;;;;;;;9.75;8.75;;;27.30;1.00;;;;;;5032923;28;20026;-56
2022/08/29 08:54:01;;;;;;;9.60;8.68;;;27.30;1.00;;;;;;5034689;28;20099;-56
2022/08/29 08:56:42;;;;;;;11.38;9.82;;;27.40;1.00;;;;;;5031876;28;20025;-56
2022/08/29 08:59:28;;;;;;;11.55;9.88;;;27.30;1.00;;;;;;5030010;28;20025;-56
2022/08/29 09:02:00;;;;;;;10.25;9.18;;;27.30;1.00;;;;;;5031815;28;20033;-57
2022/08/29 09:04:34;;;;;;;8.93;8.05;;;27.60;1.00;;;;;;5031321;28;20013;-57
2022/08/29 09:07:06;;;;;;;12.60;8.60;;;27.70;1.00;;;;;;5032078;28;20041;-55
2022/08/29 09:09:31;;;;;;;12.00;9.80;;;27.90;1.00;;;;;;5031268;28;20025;-57
2022/08/29 09:12:26;;;;;;;10.60;8.23;;;28.10;1.00;;;;;;5032082;28;20379;-56
2022/08/29 09:15:11;;;;;;;11.98;8.80;;;28.20;1.00;;;;;;5033878;28;20025;-58
2022/08/29 09:17:40;;;;;;;9.30;7.18;;;28.20;1.00;;;;;;5032701;28;20071;-57
2022/08/29 09:20:09;;;;;;;8.25;7.45;;;28.30;1.00;;;;;;5030860;28;20017;-56
2022/08/29 09:22:39;;;;;;;11.98;7.80;;;28.50;1.00;;;;;;5024179;28;20033;-57
2022/08/29 09:25:07;;;;;;;12.75;10.40;;;28.50;1.00;;;;;;5034050;28;20021;-56
2022/08/29 09:27:35;;;;;;;10.18;8.95;;;28.30;1.00;;;;;;5031898;28;20033;-58
2022/08/29 09:30:03;;;;;;;8.23;7.53;;;28.20;1.00;;;;;;5035813;28;20110;-58
2022/08/29 09:32:29;;;;;;;10.32;7.63;;;28.20;1.00;;;;;;5031607;28;20056;-57
2022/08/29 09:35:18;;;;;;;8.05;7.35;;;28.20;1.00;;;;;;5034099;28;20029;-57
2022/08/29 09:37:58;;;;;;;9.00;7.63;;;28.30;1.00;;;;;;5036814;28;20151;-57
2022/08/29 09:40:45;;;;;;;9.02;8.02;;;28.30;1.00;;;;;;5038075;28;20021;-57
2022/08/29 09:43:22;;;;;;;7.88;7.18;;;28.30;1.00;;;;;;5034445;28;20014;-58
2022/08/29 09:46:06;;;;;;;8.70;7.93;;;28.30;1.00;;;;;;5036692;28;20121;-57
2022/08/29 09:48:34;;;;;;;8.52;7.68;;;28.30;1.00;;;;;;5031540;28;20138;-56
2022/08/29 09:51:13;;;;;;;8.25;7.13;;;28.30;1.00;;;;;;5032616;28;20018;-58
2022/08/29 09:53:38;;;;;;;8.05;7.25;;;28.40;1.00;;;;;;5031994;28;20022;-57
2022/08/29 09:56:07;;;;;;;6.70;6.10;;;28.40;1.00;;;;;;5030892;28;20032;-57
2022/08/29 09:58:38;;;;;;;7.07;6.20;;;28.40;1.00;;;;;;5031511;28;20379;-57
2022/08/29 10:01:15;;;;;;;8.15;7.35;;;28.40;1.00;;;;;;5030122;28;20034;-57
2022/08/29 10:03:51;;;;;;;7.20;6.00;;;28.40;1.00;;;;;;5031397;28;20097;-56
2022/08/29 10:06:22;;;;;;;7.80;7.00;;;28.40;1.00;;;;;;5030561;28;20037;-57
2022/08/29 10:09:10;;;;;;;6.18;5.68;;;28.40;1.00;;;;;;5031326;28;20067;-58
2022/08/29 10:11:49;;;;;;;7.15;6.45;;;28.50;1.00;;;;;;5036576;28;20174;-57
2022/08/29 10:14:34;;;;;;;7.50;6.82;;;28.40;1.00;;;;;;5018232;28;20024;-58
2022/08/29 10:20:15;;;;;;;8.93;6.85;;;28.60;1.00;;;;;;5031899;28;20087;-56
2022/08/29 10:22:50;;;;;;;9.02;8.15;;;28.70;1.00;;;;;;5038604;28;20399;-57
2022/08/29 10:25:25;;;;;;;9.18;6.70;;;28.70;1.00;;;;;;5032957;28;20379;-57
2022/08/29 10:27:55;;;;;;;8.60;7.18;;;28.80;1.00;;;;;;5039345;28;20022;-57
2022/08/29 10:30:50;;;;;;;6.72;6.07;;;28.80;1.00;;;;;;5033727;28;20108;-57
2022/08/29 10:33:53;;;;;;;8.05;6.60;;;28.90;1.00;;;;;;5033427;28;20041;-55
2022/08/29 10:36:30;;;;;;;8.60;6.90;;;28.90;1.00;;;;;;5034088;28;20028;-57
2022/08/29 10:39:19;;;;;;;6.88;6.22;;;28.90;1.00;;;;;;5035060;28;20025;-56
2022/08/29 10:42:18;;;;;;;7.55;6.85;;;29.10;1.00;;;;;;5022153;28;20037;-57
2022/08/29 10:45:02;;;;;;;7.03;6.43;;;29.10;1.00;;;;;;5034670;28;20018;-56
2022/08/29 10:47:47;;;;;;;;;;;29.20;1.00;;;;;;5034314;28;20510;-55
2022/08/29 10:50:16;;;;;;;7.78;7.03;;;29.30;1.00;;;;;;5021508;28;19912;-58
2022/08/29 10:53:00;;;;;;;8.57;7.13;;;29.40;1.00;;;;;;5045086;28;20083;-57
2022/08/29 10:55:40;;;;;;;;;;;29.50;1.00;;;;;;5035117;28;20094;-58
2022/08/29 10:58:22;;;;;;;7.40;6.65;;;29.60;1.00;;;;;;5045508;28;19915;-56
2022/08/29 11:00:48;;;;;;;6.70;6.15;;;29.70;1.00;;;;;;5034535;28;20454;-56
2022/08/29 11:03:34;;;;;;;7.55;6.75;;;29.90;1.00;;;;;;5047313;28;20033;-56
2022/08/29 11:06:07;;;;;;;9.02;6.82;;;30.00;1.00;;;;;;5034551;28;20059;-58
2022/08/29 11:08:45;;;;;;;12.77;6.05;;;30.20;1.00;;;;;;5033419;28;20112;-57
2022/08/29 11:11:17;;;;;;;6.10;5.50;;;30.10;1.00;;;;;;5031344;28;20029;-58
2022/08/29 11:13:56;;;;;;;6.70;4.97;;;30.20;1.00;;;;;;5033397;28;20096;-58
2022/08/29 11:16:32;;;;;;;7.40;6.30;;;30.30;1.00;;;;;;5034337;28;20506;-56
2022/08/29 11:19:14;;;;;;;5.30;4.78;;;30.10;1.00;;;;;;5033247;28;20108;-58
2022/08/29 11:21:50;;;;;;;6.35;5.80;;;30.40;1.00;;;;;;5046073;28;20287;-58
2022/08/29 11:24:19;;;;;;;6.93;6.22;;;30.50;1.00;;;;;;5032740;28;20021;-58
2022/08/29 11:27:07;;;;;;;6.32;5.82;;;30.70;1.00;;;;;;5033016;28;20041;-57
2022/08/29 11:29:48;;;;;;;7.40;6.10;;;30.60;1.00;;;;;;5033352;28;20022;-58
2022/08/29 11:32:50;;;;;;;6.82;6.13;;;30.80;1.00;;;;;;5033093;28;20147;-56
2022/08/29 11:35:24;;;;;;;6.13;5.55;;;30.80;1.00;;;;;;5022505;28;20028;-57
2022/08/29 11:38:09;;;;;;;6.03;5.38;;;30.90;1.00;;;;;;5034335;28;20033;-57
2022/08/29 11:40:44;;;;;;;7.10;5.93;;;31.00;1.00;;;;;;5033730;28;20439;-57
2022/08/29 11:43:16;;;;;;;6.78;5.68;;;31.10;1.00;;;;;;5039084;28;20029;-56
2022/08/29 11:45:42;;;;;;;7.13;6.43;;;31.20;1.00;;;;;;5033993;28;20037;-57
2022/08/29 11:48:32;;;;;;;6.50;5.93;;;31.20;1.00;;;;;;5032910;28;20021;-58
2022/08/29 11:50:59;;;;;;;7.88;7.18;;;31.30;1.00;;;;;;5033020;28;20029;-58
2022/08/29 11:53:32;;;;;;;6.72;5.90;;;31.30;1.00;;;;;;5033768;28;20021;-55
2022/08/29 11:56:13;;;;;;;8.43;5.55;;;31.20;1.00;;;;;;5039265;28;20483;-58
2022/08/29 11:58:47;;;;;;;6.00;5.50;;;31.40;1.00;;;;;;5035302;28;20025;-58
2022/08/29 12:01:34;;;;;;;7.65;5.38;;;31.50;1.00;;;;;;5035001;28;20383;-59
2022/08/29 12:04:05;;;;;;;5.78;5.28;;;31.70;1.00;;;;;;5035218;28;20375;-58
2022/08/29 12:06:52;;;;;;;7.88;5.82;;;31.80;1.00;;;;;;5035449;28;20391;-57
2022/08/29 12:09:31;;;;;;;6.80;6.07;;;32.00;1.00;;;;;;5033383;28;20103;-58
2022/08/29 12:12:03;;;;;;;8.30;5.03;;;32.10;1.00;;;;;;5038289;28;20039;-57
2022/08/29 12:14:28;;;;;;;5.85;5.45;;;35.20;1.00;;;;;;5033313;28;20379;-57
2022/08/29 12:16:54;;;;;;;7.45;6.20;;;36.50;1.00;;;;;;5039083;28;20029;-58
2022/08/29 12:19:50;;;;;;;7.30;6.60;;;38.70;1.00;;;;;;5033255;28;20100;-59
2022/08/29 12:22:47;;;;;;;6.15;5.65;;;39.90;1.00;;;;;;5039738;28;20048;-58
2022/08/29 12:25:27;;;;;;;6.00;5.60;;;41.70;1.00;;;;;;5033068;28;20490;-59
2022/08/29 12:27:59;;;;;;;5.60;5.20;;;41.90;1.00;;;;;;5036377;28;20499;-59
2022/08/29 12:30:27;;;;;;;7.90;7.20;;;42.30;1.00;;;;;;5038687;28;20041;-59
2022/08/29 12:33:06;;;;;;;8.10;7.30;;;40.60;1.00;;;;;;5040455;28;20057;-59
2022/08/29 12:36:11;;;;;;;7.03;6.40;;;39.00;1.00;;;;;;5033197;28;20029;-59
2022/08/29 12:38:59;;;;;;;7.57;6.68;;;38.70;1.00;;;;;;5022172;28;20062;-59
2022/08/29 12:41:37;;;;;;;7.18;6.53;;;37.60;1.00;;;;;;5028361;28;20109;-59
2022/08/29 12:44:10;;;;;;;7.00;6.50;;;38.10;1.00;;;;;;5031859;28;20104;-57
2022/08/29 12:46:40;;;;;;;7.72;7.00;;;38.70;1.00;;;;;;5031553;28;20074;-57
2022/08/29 12:49:25;;;;;;;6.68;6.28;;;39.20;1.00;;;;;;5031919;28;20029;-59
2022/08/29 12:52:01;;;;;;;7.55;6.90;;;40.10;1.00;;;;;;5037611;28;20072;-57
2022/08/29 12:54:40;;;;;;;8.20;7.10;;;42.00;1.00;;;;;;5034339;28;20091;-57
2022/08/29 12:57:15;;;;;;;7.57;6.95;;;42.90;1.00;;;;;;5039113;28;20884;-57
2022/08/29 12:59:44;;;;;;;7.55;7.15;;;42.90;1.00;;;;;;5033140;28;20460;-57
2022/08/29 13:02:23;;;;;;;7.90;7.50;;;43.30;1.00;;;;;;5039521;28;20031;-57
2022/08/29 13:04:48;;;;;;;7.78;7.30;;;44.60;1.00;;;;;;5033263;28;20061;-57
2022/08/29 13:07:17;;;;;;;7.95;7.55;;;46.80;1.00;;;;;;5031612;28;20073;-56
2022/08/29 13:09:50;;;;;;;9.68;8.93;;;47.90;1.00;;;;;;5032290;28;20072;-56
2022/08/29 13:12:26;;;;;;;8.40;7.82;;;48.50;1.00;;;;;;5031479;28;20033;-57
2022/08/29 13:15:18;;;;;;;7.80;7.38;;;49.70;99.90;;;;;;5032097;28;20017;-57
2022/08/29 13:17:46;;;;;;;7.63;7.22;;;50.40;99.90;;;;;;5043938;28;20041;-57
2022/08/29 13:20:39;;;;;;;7.70;7.10;;;50.00;99.90;;;;;;5031940;28;20021;-56
2022/08/29 13:23:11;;;;;;;6.95;6.35;;;51.20;99.90;;;;;;5031230;28;20025;-57
2022/08/29 13:25:57;;;;;;;7.73;7.43;;;51.20;99.90;;;;;;5030387;28;20033;-57
2022/08/29 13:28:27;;;;;;;7.90;7.43;;;50.90;99.90;;;;;;5031430;28;20048;-57
2022/08/29 13:31:33;;;;;;;7.88;7.38;;;50.20;99.90;;;;;;5036409;28;20044;-57
2022/08/29 13:34:01;;;;;;;6.78;6.45;;;50.00;99.90;;;;;;5040644;28;20103;-57
2022/08/29 13:36:26;;;;;;;7.60;7.10;;;50.80;99.90;;;;;;5027601;28;20041;-57